Nelson, New Hampshire
Current Conditions -  °F | °C
As of 6:15 AM on Monday 20 Oct 2014 (Local Time) from KEEN Reporting Station
Clear Clear  
Wind Chill: 30°   Ceiling: Unl
Heat Index: 30°   Visibility: 10mi
Dew Point: 21°   Wind: 0mph
Humidity: 69%   Direction: NA
Pressure: 30.01"   Gusts: NA
Location:  42.9982°N, 72.1464°W
Report Text: KEEN 201015Z AUTO 00000KT 10SM CLR M01/M06 A3001 RMK AO1
Loading
Personal Weather Stations






























Interactive Weather Map
Tropical Storm Tracking
New forecast layout! Learn more

10-Day Weather Forecast

Advertisements
Track Severe Weather on mobile